sensor_id;sensor_type;location;lat;lon;timestamp;pressure;altitude;pressure_sealevel;temperature;humidity
6144;BME280;3103;49.492;8.474;2022-09-20T00:01:20;101033.84;;;13.43;70.58
6144;BME280;3103;49.492;8.474;2022-09-20T00:03:50;101040.31;;;13.59;68.80
6144;BME280;3103;49.492;8.474;2022-09-20T00:06:19;101031.16;;;13.77;67.41
6144;BME280;3103;49.492;8.474;2022-09-20T00:08:49;101035.25;;;13.62;68.00
6144;BME280;3103;49.492;8.474;2022-09-20T00:11:19;101043.94;;;13.81;67.12
6144;BME280;3103;49.492;8.474;2022-09-20T00:13:48;101037.88;;;13.74;66.09
6144;BME280;3103;49.492;8.474;2022-09-20T00:16:21;101041.88;;;13.55;66.88
6144;BME280;3103;49.492;8.474;2022-09-20T00:18:50;101040.81;;;13.73;65.73
6144;BME280;3103;49.492;8.474;2022-09-20T00:21:19;101036.38;;;13.33;67.27
6144;BME280;3103;49.492;8.474;2022-09-20T00:23:47;101037.91;;;13.29;68.40
6144;BME280;3103;49.492;8.474;2022-09-20T00:26:14;101037.34;;;13.27;68.42
6144;BME280;3103;49.492;8.474;2022-09-20T00:28:41;101040.94;;;13.32;68.81
6144;BME280;3103;49.492;8.474;2022-09-20T00:31:10;101044.28;;;13.23;69.38
6144;BME280;3103;49.492;8.474;2022-09-20T00:33:37;101038.69;;;13.13;69.80
6144;BME280;3103;49.492;8.474;2022-09-20T00:36:23;101044.16;;;13.18;70.13
6144;BME280;3103;49.492;8.474;2022-09-20T00:38:55;101048.97;;;13.16;70.39
6144;BME280;3103;49.492;8.474;2022-09-20T00:41:22;101045.34;;;13.22;70.55
6144;BME280;3103;49.492;8.474;2022-09-20T00:43:49;101049.09;;;13.21;71.34
6144;BME280;3103;49.492;8.474;2022-09-20T00:48:46;101048.00;;;13.50;70.67
6144;BME280;3103;49.492;8.474;2022-09-20T00:51:17;101039.47;;;13.25;71.52
6144;BME280;3103;49.492;8.474;2022-09-20T00:53:48;101043.06;;;13.30;72.18
6144;BME280;3103;49.492;8.474;2022-09-20T00:56:21;101047.28;;;13.38;71.83
6144;BME280;3103;49.492;8.474;2022-09-20T00:58:54;101038.97;;;13.28;72.61
6144;BME280;3103;49.492;8.474;2022-09-20T01:01:25;101034.41;;;13.28;72.75
6144;BME280;3103;49.492;8.474;2022-09-20T01:03:52;101033.47;;;13.23;72.85
6144;BME280;3103;49.492;8.474;2022-09-20T01:06:20;101037.34;;;13.27;72.72
6144;BME280;3103;49.492;8.474;2022-09-20T01:08:49;101039.94;;;13.22;72.92
6144;BME280;3103;49.492;8.474;2022-09-20T01:11:16;101035.13;;;13.24;73.28
6144;BME280;3103;49.492;8.474;2022-09-20T01:13:43;101038.53;;;13.19;73.01
6144;BME280;3103;49.492;8.474;2022-09-20T01:16:11;101057.00;;;13.11;73.35
6144;BME280;3103;49.492;8.474;2022-09-20T01:18:40;101051.75;;;13.32;72.99
6144;BME280;3103;49.492;8.474;2022-09-20T01:21:07;101051.41;;;13.29;72.85
6144;BME280;3103;49.492;8.474;2022-09-20T01:23:54;101040.28;;;13.25;72.34
6144;BME280;3103;49.492;8.474;2022-09-20T01:26:48;101047.91;;;13.17;72.14
6144;BME280;3103;49.492;8.474;2022-09-20T01:29:34;101048.13;;;12.98;73.32
6144;BME280;3103;49.492;8.474;2022-09-20T01:32:06;101055.44;;;13.15;72.96
6144;BME280;3103;49.492;8.474;2022-09-20T01:34:44;101048.94;;;12.99;73.25
6144;BME280;3103;49.492;8.474;2022-09-20T01:37:26;101057.34;;;13.02;73.50
6144;BME280;3103;49.492;8.474;2022-09-20T01:40:02;101059.41;;;12.95;73.75
6144;BME280;3103;49.492;8.474;2022-09-20T01:42:35;101049.03;;;13.04;73.80
6144;BME280;3103;49.492;8.474;2022-09-20T01:45:14;101043.13;;;13.07;73.97
6144;BME280;3103;49.492;8.474;2022-09-20T01:50:51;101046.19;;;13.11;74.36
6144;BME280;3103;49.492;8.474;2022-09-20T02:02:40;101049.56;;;13.18;73.60
6144;BME280;3103;49.492;8.474;2022-09-20T02:22:03;101038.75;;;13.18;73.61
6144;BME280;3103;49.492;8.474;2022-09-20T02:24:43;101041.56;;;13.23;72.85
6144;BME280;3103;49.492;8.474;2022-09-20T02:43:48;101045.13;;;13.12;71.35
6144;BME280;3103;49.492;8.474;2022-09-20T02:46:21;101044.03;;;12.96;71.82
6144;BME280;3103;49.492;8.474;2022-09-20T02:49:07;101047.34;;;12.86;72.25
6144;BME280;3103;49.492;8.474;2022-09-20T02:52:02;101046.38;;;12.92;72.12
6144;BME280;3103;49.492;8.474;2022-09-20T02:54:47;101053.31;;;12.88;72.11
6144;BME280;3103;49.492;8.474;2022-09-20T02:57:29;101060.59;;;12.76;72.18
6144;BME280;3103;49.492;8.474;2022-09-20T03:00:12;101063.19;;;12.83;72.18
6144;BME280;3103;49.492;8.474;2022-09-20T03:05:28;101065.31;;;12.69;72.58
6144;BME280;3103;49.492;8.474;2022-09-20T03:08:25;101075.88;;;12.70;72.74
6144;BME280;3103;49.492;8.474;2022-09-20T03:16:04;101070.97;;;12.56;73.93
6144;BME280;3103;49.492;8.474;2022-09-20T03:18:49;101063.44;;;12.69;73.69
6144;BME280;3103;49.492;8.474;2022-09-20T03:26:42;101078.44;;;12.65;73.73
6144;BME280;3103;49.492;8.474;2022-09-20T03:29:30;101074.72;;;12.55;73.62
6144;BME280;3103;49.492;8.474;2022-09-20T03:40:55;101079.50;;;12.64;72.86
6144;BME280;3103;49.492;8.474;2022-09-20T03:43:51;101078.47;;;12.54;73.46
6144;BME280;3103;49.492;8.474;2022-09-20T03:46:28;101069.81;;;12.40;73.31
6144;BME280;3103;49.492;8.474;2022-09-20T03:57:48;101076.47;;;12.37;74.97
6144;BME280;3103;49.492;8.474;2022-09-20T04:11:36;101077.81;;;12.11;76.23
6144;BME280;3103;49.492;8.474;2022-09-20T04:14:33;101077.81;;;12.11;76.53
6144;BME280;3103;49.492;8.474;2022-09-20T04:17:10;101070.97;;;12.09;76.57
6144;BME280;3103;49.492;8.474;2022-09-20T04:19:51;101069.00;;;12.04;76.69
6144;BME280;3103;49.492;8.474;2022-09-20T04:22:21;101065.50;;;12.04;76.91
6144;BME280;3103;49.492;8.474;2022-09-20T04:25:04;101065.16;;;12.00;77.68
6144;BME280;3103;49.492;8.474;2022-09-20T04:27:45;101067.81;;;12.35;76.20
6144;BME280;3103;49.492;8.474;2022-09-20T04:30:20;101076.63;;;12.19;76.32
6144;BME280;3103;49.492;8.474;2022-09-20T04:33:05;101077.09;;;12.39;75.71
6144;BME280;3103;49.492;8.474;2022-09-20T04:35:52;101080.47;;;12.23;76.59
6144;BME280;3103;49.492;8.474;2022-09-20T04:38:40;101082.94;;;12.13;76.94
6144;BME280;3103;49.492;8.474;2022-09-20T04:41:32;101086.09;;;12.10;77.52
6144;BME280;3103;49.492;8.474;2022-09-20T04:47:00;101091.03;;;12.13;76.24
6144;BME280;3103;49.492;8.474;2022-09-20T04:53:12;101093.97;;;12.11;76.39
6144;BME280;3103;49.492;8.474;2022-09-20T04:55:22;101097.69;;;12.10;76.57
6144;BME280;3103;49.492;8.474;2022-09-20T05:04:03;101098.16;;;12.07;76.57
6144;BME280;3103;49.492;8.474;2022-09-20T05:10:01;101106.81;;;11.86;77.31
6144;BME280;3103;49.492;8.474;2022-09-20T05:15:38;101116.91;;;12.02;76.95
6144;BME280;3103;49.492;8.474;2022-09-20T05:24:10;101130.72;;;12.06;76.74
6144;BME280;3103;49.492;8.474;2022-09-20T05:30:33;101123.00;;;11.98;77.03
6144;BME280;3103;49.492;8.474;2022-09-20T05:34:03;101137.63;;;12.02;77.07
6144;BME280;3103;49.492;8.474;2022-09-20T05:36:42;101129.44;;;11.97;76.74
6144;BME280;3103;49.492;8.474;2022-09-20T05:39:43;101130.25;;;12.09;75.79
6144;BME280;3103;49.492;8.474;2022-09-20T05:42:39;101130.84;;;12.11;75.42
6144;BME280;3103;49.492;8.474;2022-09-20T05:45:21;101139.88;;;12.16;75.41
6144;BME280;3103;49.492;8.474;2022-09-20T05:48:19;101135.56;;;12.27;75.02
6144;BME280;3103;49.492;8.474;2022-09-20T05:50:58;101137.66;;;12.13;75.63
6144;BME280;3103;49.492;8.474;2022-09-20T05:56:58;101138.34;;;12.32;75.50
6144;BME280;3103;49.492;8.474;2022-09-20T05:59:53;101139.50;;;12.36;74.82
6144;BME280;3103;49.492;8.474;2022-09-20T06:02:37;101142.22;;;12.36;73.76
6144;BME280;3103;49.492;8.474;2022-09-20T06:08:07;101144.44;;;12.51;74.10
6144;BME280;3103;49.492;8.474;2022-09-20T06:16:24;101150.63;;;12.98;73.54
6144;BME280;3103;49.492;8.474;2022-09-20T06:19:15;101150.16;;;12.90;73.35
6144;BME280;3103;49.492;8.474;2022-09-20T06:21:55;101160.59;;;12.98;74.12
6144;BME280;3103;49.492;8.474;2022-09-20T06:24:46;101158.34;;;12.95;74.67
6144;BME280;3103;49.492;8.474;2022-09-20T06:27:22;101155.44;;;12.73;76.10
6144;BME280;3103;49.492;8.474;2022-09-20T06:29:57;101158.63;;;12.70;75.57
6144;BME280;3103;49.492;8.474;2022-09-20T06:32:25;101160.50;;;12.58;76.33
6144;BME280;3103;49.492;8.474;2022-09-20T06:34:52;101162.63;;;12.67;75.82
6144;BME280;3103;49.492;8.474;2022-09-20T06:38:16;101158.97;;;12.85;74.53
6144;BME280;3103;49.492;8.474;2022-09-20T06:40:52;101168.59;;;12.81;73.88
6144;BME280;3103;49.492;8.474;2022-09-20T06:43:37;101160.44;;;13.04;72.13
6144;BME280;3103;49.492;8.474;2022-09-20T06:46:06;101166.22;;;12.96;71.88
6144;BME280;3103;49.492;8.474;2022-09-20T06:48:33;101178.72;;;13.26;71.39
6144;BME280;3103;49.492;8.474;2022-09-20T06:51:00;101177.78;;;13.60;69.58
6144;BME280;3103;49.492;8.474;2022-09-20T06:53:29;101181.16;;;13.68;69.26
6144;BME280;3103;49.492;8.474;2022-09-20T06:55:58;101173.91;;;13.85;68.51
6144;BME280;3103;49.492;8.474;2022-09-20T06:58:26;101179.28;;;13.68;68.84
6144;BME280;3103;49.492;8.474;2022-09-20T07:00:53;101176.00;;;13.66;69.12
6144;BME280;3103;49.492;8.474;2022-09-20T07:03:20;101176.28;;;13.81;68.81
6144;BME280;3103;49.492;8.474;2022-09-20T07:05:46;101177.56;;;13.50;69.46
6144;BME280;3103;49.492;8.474;2022-09-20T07:08:15;101186.69;;;13.32;70.67
6144;BME280;3103;49.492;8.474;2022-09-20T07:10:42;101179.19;;;13.23;70.41
6144;BME280;3103;49.492;8.474;2022-09-20T07:13:10;101182.13;;;13.21;70.02
6144;BME280;3103;49.492;8.474;2022-09-20T07:15:39;101180.38;;;13.15;70.64
6144;BME280;3103;49.492;8.474;2022-09-20T07:18:06;101177.59;;;12.75;71.87
6144;BME280;3103;49.492;8.474;2022-09-20T07:20:33;101177.78;;;13.08;71.11
6144;BME280;3103;49.492;8.474;2022-09-20T07:23:00;101175.75;;;13.68;68.84
6144;BME280;3103;49.492;8.474;2022-09-20T07:25:29;101186.50;;;13.79;67.69
6144;BME280;3103;49.492;8.474;2022-09-20T07:27:56;101182.16;;;13.78;67.57
6144;BME280;3103;49.492;8.474;2022-09-20T07:30:23;101188.16;;;13.80;66.78
6144;BME280;3103;49.492;8.474;2022-09-20T07:32:50;101192.53;;;13.98;66.76
6144;BME280;3103;49.492;8.474;2022-09-20T07:35:17;101187.13;;;13.98;66.88
6144;BME280;3103;49.492;8.474;2022-09-20T07:37:44;101187.00;;;13.93;67.31
6144;BME280;3103;49.492;8.474;2022-09-20T07:40:14;101194.25;;;14.21;66.40
6144;BME280;3103;49.492;8.474;2022-09-20T07:42:41;101191.63;;;14.09;66.18
6144;BME280;3103;49.492;8.474;2022-09-20T07:45:10;101192.09;;;14.06;66.38
6144;BME280;3103;49.492;8.474;2022-09-20T07:47:38;101191.31;;;14.39;66.20
6144;BME280;3103;49.492;8.474;2022-09-20T07:50:07;101199.13;;;14.91;64.45
6144;BME280;3103;49.492;8.474;2022-09-20T07:52:35;101195.53;;;14.85;64.09
6144;BME280;3103;49.492;8.474;2022-09-20T07:55:02;101205.75;;;15.00;63.10
6144;BME280;3103;49.492;8.474;2022-09-20T07:57:33;101209.59;;;15.04;63.08
6144;BME280;3103;49.492;8.474;2022-09-20T08:00:04;101215.16;;;15.14;62.22
6144;BME280;3103;49.492;8.474;2022-09-20T08:02:38;101212.69;;;15.13;61.87
6144;BME280;3103;49.492;8.474;2022-09-20T08:05:05;101206.63;;;15.06;62.05
6144;BME280;3103;49.492;8.474;2022-09-20T08:07:32;101219.38;;;15.71;59.96
6144;BME280;3103;49.492;8.474;2022-09-20T08:09:58;101216.03;;;15.86;59.73
6144;BME280;3103;49.492;8.474;2022-09-20T08:12:26;101212.22;;;16.14;58.54
6144;BME280;3103;49.492;8.474;2022-09-20T08:15:13;101214.53;;;16.64;57.30
6144;BME280;3103;49.492;8.474;2022-09-20T08:17:39;101217.22;;;16.27;57.94
6144;BME280;3103;49.492;8.474;2022-09-20T08:20:06;101219.28;;;16.47;57.36
6144;BME280;3103;49.492;8.474;2022-09-20T08:22:33;101216.44;;;16.31;59.94
6144;BME280;3103;49.492;8.474;2022-09-20T08:25:00;101215.31;;;15.95;60.28
6144;BME280;3103;49.492;8.474;2022-09-20T08:27:28;101218.78;;;15.64;60.50
6144;BME280;3103;49.492;8.474;2022-09-20T08:29:55;101219.41;;;15.49;61.22
6144;BME280;3103;49.492;8.474;2022-09-20T08:32:22;101224.78;;;15.27;61.63
6144;BME280;3103;49.492;8.474;2022-09-20T08:34:49;101222.09;;;15.27;61.68
6144;BME280;3103;49.492;8.474;2022-09-20T08:37:16;101228.53;;;15.65;61.35
6144;BME280;3103;49.492;8.474;2022-09-20T08:39:43;101225.91;;;15.31;61.39
6144;BME280;3103;49.492;8.474;2022-09-20T08:42:34;101229.16;;;15.50;60.86
6144;BME280;3103;49.492;8.474;2022-09-20T08:45:18;101221.19;;;15.43;61.63
6144;BME280;3103;49.492;8.474;2022-09-20T08:48:01;101219.31;;;15.44;61.07
6144;BME280;3103;49.492;8.474;2022-09-20T08:50:31;101228.50;;;15.43;61.07
6144;BME280;3103;49.492;8.474;2022-09-20T08:53:00;101223.16;;;15.48;60.62
6144;BME280;3103;49.492;8.474;2022-09-20T08:55:31;101224.03;;;15.54;60.97
6144;BME280;3103;49.492;8.474;2022-09-20T08:58:09;101214.91;;;15.60;60.72
6144;BME280;3103;49.492;8.474;2022-09-20T09:00:38;101223.97;;;15.70;59.64
6144;BME280;3103;49.492;8.474;2022-09-20T09:03:11;101223.06;;;15.87;59.19
6144;BME280;3103;49.492;8.474;2022-09-20T09:05:49;101221.00;;;15.94;58.51
6144;BME280;3103;49.492;8.474;2022-09-20T09:08:27;101221.53;;;16.23;58.23
6144;BME280;3103;49.492;8.474;2022-09-20T09:10:58;101219.19;;;16.04;58.71
6144;BME280;3103;49.492;8.474;2022-09-20T09:13:34;101219.31;;;16.52;57.06
6144;BME280;3103;49.492;8.474;2022-09-20T09:16:10;101219.44;;;17.09;54.58
6144;BME280;3103;49.492;8.474;2022-09-20T09:18:40;101220.88;;;17.22;54.18
6144;BME280;3103;49.492;8.474;2022-09-20T09:21:14;101220.19;;;17.00;54.77
6144;BME280;3103;49.492;8.474;2022-09-20T09:23:52;101214.03;;;17.09;55.32
6144;BME280;3103;49.492;8.474;2022-09-20T09:26:35;101219.31;;;16.84;55.83
6144;BME280;3103;49.492;8.474;2022-09-20T09:29:21;101208.78;;;16.60;55.35
6144;BME280;3103;49.492;8.474;2022-09-20T09:31:50;101212.03;;;16.57;55.88
6144;BME280;3103;49.492;8.474;2022-09-20T09:34:29;101216.75;;;17.09;54.18
6144;BME280;3103;49.492;8.474;2022-09-20T09:36:56;101217.97;;;17.39;53.43
6144;BME280;3103;49.492;8.474;2022-09-20T09:39:31;101207.78;;;17.14;53.26
6144;BME280;3103;49.492;8.474;2022-09-20T09:41:58;101212.53;;;16.86;53.76
6144;BME280;3103;49.492;8.474;2022-09-20T09:44:29;101205.78;;;16.57;54.93
6144;BME280;3103;49.492;8.474;2022-09-20T09:46:58;101204.44;;;16.22;56.18
6144;BME280;3103;49.492;8.474;2022-09-20T09:49:30;101212.75;;;16.11;57.16
6144;BME280;3103;49.492;8.474;2022-09-20T09:54:42;101202.00;;;15.67;58.43
6144;BME280;3103;49.492;8.474;2022-09-20T09:59:46;101198.91;;;15.80;58.36
6144;BME280;3103;49.492;8.474;2022-09-20T10:11:18;101194.97;;;15.66;56.85
6144;BME280;3103;49.492;8.474;2022-09-20T10:14:02;101186.03;;;16.24;54.29
6144;BME280;3103;49.492;8.474;2022-09-20T10:19:41;101188.63;;;16.46;52.17
6144;BME280;3103;49.492;8.474;2022-09-20T10:25:30;101192.50;;;16.60;52.42
6144;BME280;3103;49.492;8.474;2022-09-20T10:28:07;101194.31;;;16.77;53.27
6144;BME280;3103;49.492;8.474;2022-09-20T10:33:20;101187.69;;;17.15;50.87
6144;BME280;3103;49.492;8.474;2022-09-20T10:36:00;101185.28;;;17.18;49.87
6144;BME280;3103;49.492;8.474;2022-09-20T10:39:05;101183.94;;;16.69;50.03
6144;BME280;3103;49.492;8.474;2022-09-20T10:50:28;101195.03;;;15.76;51.58
6144;BME280;3103;49.492;8.474;2022-09-20T10:58:43;101215.00;;;15.21;61.48
6144;BME280;3103;49.492;8.474;2022-09-20T11:09:18;101201.78;;;14.86;59.30
6144;BME280;3103;49.492;8.474;2022-09-20T11:11:51;101209.72;;;14.93;59.50
6144;BME280;3103;49.492;8.474;2022-09-20T11:14:26;101206.63;;;15.06;58.39
6144;BME280;3103;49.492;8.474;2022-09-20T11:17:11;101211.00;;;15.07;60.08
6144;BME280;3103;49.492;8.474;2022-09-20T11:19:52;101220.19;;;15.28;59.53
6144;BME280;3103;49.492;8.474;2022-09-20T11:22:27;101221.94;;;15.17;58.24
6144;BME280;3103;49.492;8.474;2022-09-20T11:25:03;101229.94;;;15.07;60.20
6144;BME280;3103;49.492;8.474;2022-09-20T11:27:37;101231.84;;;14.90;59.88
6144;BME280;3103;49.492;8.474;2022-09-20T11:30:20;101237.81;;;14.92;60.04
6144;BME280;3103;49.492;8.474;2022-09-20T11:32:52;101253.69;;;14.83;59.97
6144;BME280;3103;49.492;8.474;2022-09-20T11:35:27;101235.72;;;14.77;60.65
6144;BME280;3103;49.492;8.474;2022-09-20T11:38:02;101233.44;;;14.69;61.63
6144;BME280;3103;49.492;8.474;2022-09-20T11:40:33;101224.69;;;14.78;60.29
6144;BME280;3103;49.492;8.474;2022-09-20T11:43:04;101227.19;;;14.85;60.77
6144;BME280;3103;49.492;8.474;2022-09-20T11:45:32;101220.06;;;14.96;58.35
6144;BME280;3103;49.492;8.474;2022-09-20T11:48:08;101215.41;;;14.74;58.70
6144;BME280;3103;49.492;8.474;2022-09-20T11:53:28;101216.66;;;15.05;56.73
6144;BME280;3103;49.492;8.474;2022-09-20T11:56:17;101217.41;;;15.01;58.32
6144;BME280;3103;49.492;8.474;2022-09-20T11:58:54;101216.28;;;15.19;58.01
6144;BME280;3103;49.492;8.474;2022-09-20T12:01:33;101217.94;;;15.41;56.25
6144;BME280;3103;49.492;8.474;2022-09-20T12:07:05;101212.91;;;15.50;56.24
6144;BME280;3103;49.492;8.474;2022-09-20T12:10:18;101215.66;;;15.55;55.29
6144;BME280;3103;49.492;8.474;2022-09-20T12:12:48;101210.25;;;15.55;56.73
6144;BME280;3103;49.492;8.474;2022-09-20T12:15:34;101213.91;;;15.66;56.63
6144;BME280;3103;49.492;8.474;2022-09-20T12:18:26;101214.38;;;15.85;55.86
6144;BME280;3103;49.492;8.474;2022-09-20T12:28:53;101212.72;;;16.06;53.72
6144;BME280;3103;49.492;8.474;2022-09-20T12:36:29;101202.34;;;16.02;52.01
6144;BME280;3103;49.492;8.474;2022-09-20T12:38:59;101193.44;;;16.34;52.88
6144;BME280;3103;49.492;8.474;2022-09-20T12:41:44;101197.13;;;16.23;52.94
6144;BME280;3103;49.492;8.474;2022-09-20T12:58:24;101190.53;;;16.14;54.47
6144;BME280;3103;49.492;8.474;2022-09-20T13:03:34;101197.00;;;16.08;50.97
6144;BME280;3103;49.492;8.474;2022-09-20T13:13:39;101182.38;;;16.09;51.36
6144;BME280;3103;49.492;8.474;2022-09-20T13:16:19;101180.53;;;15.87;49.96
6144;BME280;3103;49.492;8.474;2022-09-20T13:19:17;101181.75;;;16.01;50.24
6144;BME280;3103;49.492;8.474;2022-09-20T13:21:52;101188.50;;;15.72;51.01
6144;BME280;3103;49.492;8.474;2022-09-20T13:24:23;101192.19;;;15.88;50.71
6144;BME280;3103;49.492;8.474;2022-09-20T13:26:52;101200.31;;;15.88;51.31
6144;BME280;3103;49.492;8.474;2022-09-20T13:29:31;101204.16;;;16.19;52.85
6144;BME280;3103;49.492;8.474;2022-09-20T13:32:28;101200.69;;;16.28;53.74
6144;BME280;3103;49.492;8.474;2022-09-20T13:37:55;101197.59;;;16.15;54.28
6144;BME280;3103;49.492;8.474;2022-09-20T13:40:30;101199.84;;;16.23;55.07
6144;BME280;3103;49.492;8.474;2022-09-20T13:43:02;101192.16;;;16.47;55.84
6144;BME280;3103;49.492;8.474;2022-09-20T13:45:52;101181.50;;;16.35;53.24
6144;BME280;3103;49.492;8.474;2022-09-20T13:48:29;101188.19;;;16.22;54.12
6144;BME280;3103;49.492;8.474;2022-09-20T13:50:57;101186.16;;;16.08;52.85
6144;BME280;3103;49.492;8.474;2022-09-20T13:53:26;101184.00;;;16.10;53.88
6144;BME280;3103;49.492;8.474;2022-09-20T13:56:22;101186.38;;;16.33;54.49
6144;BME280;3103;49.492;8.474;2022-09-20T13:58:51;101189.94;;;16.07;55.62
6144;BME280;3103;49.492;8.474;2022-09-20T14:03:47;101177.69;;;15.72;56.52
6144;BME280;3103;49.492;8.474;2022-09-20T14:06:14;101183.31;;;15.65;56.33
6144;BME280;3103;49.492;8.474;2022-09-20T14:08:44;101175.06;;;15.82;56.32
6144;BME280;3103;49.492;8.474;2022-09-20T14:11:18;101176.44;;;15.85;56.43
6144;BME280;3103;49.492;8.474;2022-09-20T14:13:47;101176.66;;;15.78;55.59
6144;BME280;3103;49.492;8.474;2022-09-20T14:16:16;101172.78;;;15.69;55.56
6144;BME280;3103;49.492;8.474;2022-09-20T14:18:45;101171.69;;;15.70;55.42
6144;BME280;3103;49.492;8.474;2022-09-20T14:21:20;101174.50;;;16.07;54.86
6144;BME280;3103;49.492;8.474;2022-09-20T14:23:59;101168.47;;;15.73;56.05
6144;BME280;3103;49.492;8.474;2022-09-20T14:26:32;101168.16;;;15.96;54.17
6144;BME280;3103;49.492;8.474;2022-09-20T14:29:29;101168.94;;;15.65;53.85
6144;BME280;3103;49.492;8.474;2022-09-20T14:34:38;101173.47;;;15.86;53.04
6144;BME280;3103;49.492;8.474;2022-09-20T14:39:49;101171.28;;;15.83;50.17
6144;BME280;3103;49.492;8.474;2022-09-20T14:42:20;101165.25;;;15.76;49.22
6144;BME280;3103;49.492;8.474;2022-09-20T14:44:50;101156.06;;;15.77;49.05
6144;BME280;3103;49.492;8.474;2022-09-20T14:47:28;101164.63;;;15.96;49.13
6144;BME280;3103;49.492;8.474;2022-09-20T14:50:03;101160.16;;;16.12;48.80
6144;BME280;3103;49.492;8.474;2022-09-20T14:52:35;101161.88;;;16.23;47.92
6144;BME280;3103;49.492;8.474;2022-09-20T14:55:14;101158.34;;;16.22;48.45
6144;BME280;3103;49.492;8.474;2022-09-20T14:57:43;101157.97;;;16.09;48.19
6144;BME280;3103;49.492;8.474;2022-09-20T15:00:15;101154.19;;;16.10;48.44
6144;BME280;3103;49.492;8.474;2022-09-20T15:02:43;101161.00;;;16.17;48.67
6144;BME280;3103;49.492;8.474;2022-09-20T15:05:23;101157.88;;;15.98;48.00
6144;BME280;3103;49.492;8.474;2022-09-20T15:07:53;101162.75;;;15.96;48.33
6144;BME280;3103;49.492;8.474;2022-09-20T15:10:21;101162.94;;;15.90;48.78
6144;BME280;3103;49.492;8.474;2022-09-20T15:12:48;101156.69;;;15.89;48.80
6144;BME280;3103;49.492;8.474;2022-09-20T15:15:16;101151.09;;;15.96;47.77
6144;BME280;3103;49.492;8.474;2022-09-20T15:17:45;101152.50;;;16.03;48.70
6144;BME280;3103;49.492;8.474;2022-09-20T15:20:18;101151.38;;;15.99;48.87
6144;BME280;3103;49.492;8.474;2022-09-20T15:22:50;101158.66;;;15.94;48.94
6144;BME280;3103;49.492;8.474;2022-09-20T15:25:19;101157.63;;;16.00;49.25
6144;BME280;3103;49.492;8.474;2022-09-20T15:27:47;101149.22;;;16.01;49.24
6144;BME280;3103;49.492;8.474;2022-09-20T15:30:17;101157.53;;;16.22;49.40
6144;BME280;3103;49.492;8.474;2022-09-20T15:32:45;101158.00;;;16.14;49.38
6144;BME280;3103;49.492;8.474;2022-09-20T15:35:13;101152.50;;;16.03;49.87
6144;BME280;3103;49.492;8.474;2022-09-20T15:37:40;101163.94;;;16.11;50.60
6144;BME280;3103;49.492;8.474;2022-09-20T15:40:07;101159.44;;;16.21;50.49
6144;BME280;3103;49.492;8.474;2022-09-20T15:42:34;101157.34;;;16.01;51.00
6144;BME280;3103;49.492;8.474;2022-09-20T15:45:08;101159.47;;;15.94;51.89
6144;BME280;3103;49.492;8.474;2022-09-20T15:47:38;101157.28;;;15.91;52.54
6144;BME280;3103;49.492;8.474;2022-09-20T15:50:07;101160.75;;;15.87;51.78
6144;BME280;3103;49.492;8.474;2022-09-20T15:52:35;101160.63;;;16.03;52.03
6144;BME280;3103;49.492;8.474;2022-09-20T15:55:03;101159.38;;;15.84;52.41
6144;BME280;3103;49.492;8.474;2022-09-20T15:57:30;101166.00;;;15.98;52.35
6144;BME280;3103;49.492;8.474;2022-09-20T15:59:57;101162.09;;;15.84;52.92
6144;BME280;3103;49.492;8.474;2022-09-20T16:02:26;101162.44;;;15.93;52.77
6144;BME280;3103;49.492;8.474;2022-09-20T16:04:53;101161.81;;;16.18;52.06
6144;BME280;3103;49.492;8.474;2022-09-20T16:07:22;101164.59;;;16.23;51.55
6144;BME280;3103;49.492;8.474;2022-09-20T16:09:53;101166.81;;;15.99;51.12
6144;BME280;3103;49.492;8.474;2022-09-20T16:12:22;101161.53;;;15.82;51.36
6144;BME280;3103;49.492;8.474;2022-09-20T16:14:49;101161.41;;;15.72;51.02
6144;BME280;3103;49.492;8.474;2022-09-20T16:17:16;101162.03;;;15.79;50.49
6144;BME280;3103;49.492;8.474;2022-09-20T16:19:43;101162.47;;;15.66;50.41
6144;BME280;3103;49.492;8.474;2022-09-20T16:22:14;101169.44;;;15.62;51.02
6144;BME280;3103;49.492;8.474;2022-09-20T16:24:41;101161.69;;;15.70;50.99
6144;BME280;3103;49.492;8.474;2022-09-20T16:27:08;101163.78;;;15.63;51.08
6144;BME280;3103;49.492;8.474;2022-09-20T16:29:35;101167.88;;;15.66;50.64
6144;BME280;3103;49.492;8.474;2022-09-20T16:32:02;101172.13;;;15.62;50.73
6144;BME280;3103;49.492;8.474;2022-09-20T16:34:34;101173.75;;;15.36;51.14
6144;BME280;3103;49.492;8.474;2022-09-20T16:37:12;101171.66;;;15.43;51.17
6144;BME280;3103;49.492;8.474;2022-09-20T16:39:42;101173.16;;;15.34;51.29
6144;BME280;3103;49.492;8.474;2022-09-20T16:42:10;101180.06;;;15.47;51.44
6144;BME280;3103;49.492;8.474;2022-09-20T16:44:40;101176.72;;;15.34;52.13
6144;BME280;3103;49.492;8.474;2022-09-20T16:47:12;101173.78;;;15.41;52.92
6144;BME280;3103;49.492;8.474;2022-09-20T16:49:43;101182.16;;;15.39;53.19
6144;BME280;3103;49.492;8.474;2022-09-20T16:52:12;101181.97;;;15.46;53.77
6144;BME280;3103;49.492;8.474;2022-09-20T16:54:40;101182.72;;;15.41;53.64
6144;BME280;3103;49.492;8.474;2022-09-20T16:57:08;101181.22;;;15.51;53.55
6144;BME280;3103;49.492;8.474;2022-09-20T16:59:35;101174.81;;;15.35;53.24
6144;BME280;3103;49.492;8.474;2022-09-20T17:02:02;101184.31;;;15.37;53.82
6144;BME280;3103;49.492;8.474;2022-09-20T17:04:28;101192.94;;;15.34;53.53
6144;BME280;3103;49.492;8.474;2022-09-20T17:06:55;101195.78;;;15.23;54.09
6144;BME280;3103;49.492;8.474;2022-09-20T17:09:22;101194.44;;;15.25;54.43
6144;BME280;3103;49.492;8.474;2022-09-20T17:11:49;101194.41;;;15.20;54.23
6144;BME280;3103;49.492;8.474;2022-09-20T17:14:18;101198.94;;;15.36;54.26
6144;BME280;3103;49.492;8.474;2022-09-20T17:16:45;101199.22;;;15.18;54.54
6144;BME280;3103;49.492;8.474;2022-09-20T17:19:18;101200.66;;;15.04;54.04
6144;BME280;3103;49.492;8.474;2022-09-20T17:21:47;101203.50;;;14.92;54.09
6144;BME280;3103;49.492;8.474;2022-09-20T17:24:20;101205.56;;;14.85;54.24
6144;BME280;3103;49.492;8.474;2022-09-20T17:26:48;101206.69;;;14.89;54.16
6144;BME280;3103;49.492;8.474;2022-09-20T17:29:17;101211.78;;;14.85;53.99
6144;BME280;3103;49.492;8.474;2022-09-20T17:31:46;101209.41;;;14.72;54.30
6144;BME280;3103;49.492;8.474;2022-09-20T17:34:20;101207.84;;;14.76;54.45
6144;BME280;3103;49.492;8.474;2022-09-20T17:36:48;101211.88;;;14.74;55.03